createdAt,value
2019-04-01T00:00:47.032Z,34.03
2019-04-01T00:03:15.698Z,35.97
2019-04-01T00:05:45.802Z,35.70
2019-04-01T00:08:14.375Z,33.77
2019-04-01T00:10:42.982Z,34.07
2019-04-01T00:13:11.542Z,33.20
2019-04-01T00:15:40.227Z,33.37
2019-04-01T00:18:08.856Z,33.23
2019-04-01T00:20:37.745Z,28.50
2019-04-01T00:23:06.645Z,28.23
2019-04-01T00:25:38.636Z,27.90
2019-04-01T00:28:07.201Z,27.97
2019-04-01T00:30:35.874Z,25.67
2019-04-01T00:33:05.876Z,24.37
2019-04-01T00:35:34.504Z,24.27
2019-04-01T00:38:03.184Z,25.33
2019-04-01T00:40:31.754Z,25.53
2019-04-01T00:43:05.458Z,26.83
2019-04-01T00:45:35.682Z,27.97
2019-04-01T00:48:04.326Z,25.13
2019-04-01T00:50:32.877Z,27.73
2019-04-01T00:53:02.459Z,27.57
2019-04-01T00:55:30.993Z,26.87
2019-04-01T00:57:59.562Z,27.50
2019-04-01T01:00:28.240Z,25.10
2019-04-01T01:02:56.736Z,27.00
2019-04-01T01:05:25.406Z,28.10
2019-04-01T01:07:53.971Z,28.67
2019-04-01T01:10:22.602Z,29.93
2019-04-01T01:12:51.250Z,33.00
2019-04-01T01:15:19.929Z,31.17
2019-04-01T01:17:48.566Z,30.00
2019-04-01T01:20:17.747Z,27.40
2019-04-01T01:22:46.286Z,27.30
2019-04-01T01:25:14.913Z,28.03
2019-04-01T01:27:46.487Z,28.57
2019-04-01T01:30:15.228Z,26.60
2019-04-01T01:32:43.863Z,25.57
2019-04-01T01:35:12.526Z,23.80
2019-04-01T01:37:41.156Z,24.00
2019-04-01T01:40:09.828Z,23.90
2019-04-01T01:42:38.384Z,23.90
2019-04-01T01:45:07.940Z,23.33
2019-04-01T01:47:37.354Z,23.23
2019-04-01T01:50:07.491Z,23.77
2019-04-01T01:52:36.047Z,22.37
2019-04-01T01:55:04.924Z,22.97
2019-04-01T01:57:33.563Z,23.47
2019-04-01T02:00:02.169Z,24.43
2019-04-01T02:02:30.727Z,24.27
2019-04-01T02:04:59.284Z,23.93
2019-04-01T02:07:27.848Z,24.37
2019-04-01T02:09:56.521Z,24.33
2019-04-01T02:12:25.120Z,24.53
2019-04-01T02:14:53.791Z,25.07
2019-04-01T02:17:26.651Z,25.70
2019-04-01T02:19:55.179Z,26.43
2019-04-01T02:22:23.678Z,26.20
2019-04-01T02:24:52.245Z,24.77
2019-04-01T02:27:23.546Z,27.87
2019-04-01T02:29:52.197Z,27.77
2019-04-01T02:32:20.873Z,28.03
2019-04-01T02:34:49.490Z,27.73
2019-04-01T02:37:18.357Z,28.53
2019-04-01T02:39:46.908Z,28.57
2019-04-01T02:42:15.544Z,27.43
2019-04-01T02:44:44.082Z,29.40
2019-04-01T02:47:13.826Z,29.43
2019-04-01T02:49:42.511Z,31.13
2019-04-01T02:52:11.173Z,30.73
2019-04-01T02:54:39.739Z,30.03
2019-04-01T02:57:08.369Z,27.13
2019-04-01T02:59:36.861Z,28.77
2019-04-01T03:02:06.779Z,27.83
2019-04-01T03:04:35.420Z,28.03
2019-04-01T03:07:03.994Z,27.87
2019-04-01T03:09:32.597Z,28.13
2019-04-01T03:12:01.233Z,26.90
2019-04-01T03:14:29.967Z,26.27
2019-04-01T03:16:58.602Z,23.53
2019-04-01T03:19:27.283Z,23.30
2019-04-01T03:21:58.896Z,23.80
2019-04-01T03:24:27.541Z,24.17
2019-04-01T03:26:56.188Z,23.07
2019-04-01T03:29:24.871Z,24.30
2019-04-01T03:31:53.422Z,24.50
2019-04-01T03:34:22.095Z,24.03
2019-04-01T03:36:53.435Z,23.57
2019-04-01T03:39:22.382Z,23.40
2019-04-01T03:41:51.022Z,23.90
2019-04-01T03:44:19.806Z,23.90
2019-04-01T03:46:48.394Z,23.47
2019-04-01T03:49:17.073Z,22.27
2019-04-01T03:51:46.647Z,23.37
2019-04-01T03:54:15.281Z,22.13
2019-04-01T03:56:43.965Z,22.53
2019-04-01T03:59:12.590Z,22.73
2019-04-01T04:01:41.222Z,21.50
2019-04-01T04:04:09.867Z,22.90
2019-04-01T04:06:38.498Z,23.43
2019-04-01T04:09:08.186Z,22.27
2019-04-01T04:11:36.815Z,21.43
2019-04-01T04:14:05.449Z,22.63
2019-04-01T04:16:34.156Z,22.63
2019-04-01T04:19:02.799Z,24.63
2019-04-01T04:21:32.745Z,23.10
2019-04-01T04:24:01.314Z,24.00
2019-04-01T04:26:29.992Z,23.40
2019-04-01T04:29:01.271Z,23.77
2019-04-01T04:31:29.923Z,23.80
2019-04-01T04:33:58.684Z,23.03
2019-04-01T04:36:27.403Z,22.77
2019-04-01T04:38:56.091Z,21.60
2019-04-01T04:41:24.706Z,23.23
2019-04-01T04:43:53.349Z,22.57
2019-04-01T04:46:21.921Z,22.10
2019-04-01T04:48:50.564Z,21.10
2019-04-01T04:51:19.196Z,20.67
2019-04-01T04:53:47.964Z,19.87
2019-04-01T04:56:21.771Z,19.50
2019-04-01T04:58:50.930Z,19.37
2019-04-01T05:01:19.814Z,20.23
2019-04-01T05:03:48.974Z,20.03
2019-04-01T05:06:17.769Z,21.10
2019-04-01T05:08:46.642Z,22.73
2019-04-01T05:11:15.490Z,22.33
2019-04-01T05:13:44.397Z,21.13
2019-04-01T05:16:16.787Z,20.00
2019-04-01T05:18:48.546Z,20.27
2019-04-01T05:21:19.129Z,19.43
2019-04-01T05:23:51.647Z,21.07
2019-04-01T05:26:25.363Z,18.70
2019-04-01T05:28:57.806Z,18.17
2019-04-01T05:31:31.819Z,18.07
2019-04-01T05:34:02.248Z,19.13
2019-04-01T05:36:32.406Z,20.03
2019-04-01T05:39:01.478Z,22.00
2019-04-01T05:41:31.357Z,20.20
2019-04-01T05:44:02.283Z,19.27
2019-04-01T05:46:31.184Z,18.47
2019-04-01T05:49:00.205Z,19.07
2019-04-01T05:51:29.802Z,17.77
2019-04-01T05:53:58.775Z,17.87
2019-04-01T05:56:27.640Z,16.77
2019-04-01T05:58:56.273Z,17.73
2019-04-01T06:01:26.599Z,18.70
2019-04-01T06:03:55.407Z,18.50
2019-04-01T06:06:24.719Z,17.47
2019-04-01T06:08:56.898Z,16.33
2019-04-01T06:11:28.457Z,16.40
2019-04-01T06:14:01.481Z,17.67
2019-04-01T06:16:32.853Z,16.30
2019-04-01T06:19:08.002Z,18.27
2019-04-01T06:21:36.886Z,17.83
2019-04-01T06:24:05.669Z,18.20
2019-04-01T06:26:34.493Z,18.80
2019-04-01T06:29:03.484Z,18.93
2019-04-01T06:31:41.203Z,17.63
2019-04-01T06:34:16.021Z,16.97
2019-04-01T06:36:51.136Z,17.57
2019-04-01T06:39:20.327Z,17.00
2019-04-01T06:41:49.410Z,16.37
2019-04-01T06:44:20.144Z,16.17
2019-04-01T06:46:49.128Z,15.23
2019-04-01T06:49:20.300Z,15.77
2019-04-01T06:51:48.324Z,16.03
2019-04-01T06:54:17.149Z,18.37
2019-04-01T06:56:47.239Z,15.90
2019-04-01T06:59:15.926Z,18.13
2019-04-01T07:01:44.542Z,17.73
2019-04-01T07:04:13.281Z,19.53
2019-04-01T07:06:42.474Z,18.47
2019-04-01T07:09:11.164Z,17.63
2019-04-01T07:11:41.516Z,17.80
2019-04-01T07:14:10.256Z,18.07
2019-04-01T07:16:40.167Z,18.20
2019-04-01T07:19:08.923Z,16.83
2019-04-01T07:21:37.692Z,18.53
2019-04-01T07:24:06.575Z,16.17
2019-04-01T07:26:35.352Z,15.50
2019-04-01T07:29:04.024Z,18.60
2019-04-01T07:31:32.666Z,18.47
2019-04-01T07:34:01.554Z,16.30
2019-04-01T07:36:33.489Z,15.30
2019-04-01T07:39:02.221Z,15.90
2019-04-01T07:41:30.983Z,15.73
2019-04-01T07:43:59.625Z,76.83
2019-04-01T07:46:30.966Z,16.05
2019-04-01T07:48:59.753Z,15.10
2019-04-01T07:51:28.445Z,15.67
2019-04-01T07:53:57.188Z,15.70
2019-04-01T07:56:25.887Z,14.40
2019-04-01T07:58:55.052Z,14.53
2019-04-01T08:01:23.895Z,13.90
2019-04-01T08:03:52.793Z,14.17
2019-04-01T08:06:21.533Z,13.57
2019-04-01T08:08:50.427Z,13.17
2019-04-01T08:11:19.278Z,12.25
2019-04-01T08:13:47.990Z,12.20
2019-04-01T08:16:16.770Z,12.47
2019-04-01T08:18:45.423Z,12.75
2019-04-01T08:21:14.257Z,11.88
2019-04-01T08:23:43.114Z,13.58
2019-04-01T08:26:11.911Z,12.28
2019-04-01T08:28:41.905Z,11.57
2019-04-01T08:31:13.316Z,12.10
2019-04-01T08:33:41.639Z,11.63
2019-04-01T08:36:12.022Z,12.00
2019-04-01T08:38:43.273Z,11.80
2019-04-01T08:41:15.073Z,9.88
2019-04-01T08:43:43.851Z,10.35
2019-04-01T08:46:12.610Z,9.98
2019-04-01T08:48:41.304Z,9.78
2019-04-01T08:51:10.095Z,14.33
2019-04-01T08:53:39.517Z,10.58
2019-04-01T08:56:08.193Z,9.45
2019-04-01T08:58:36.903Z,12.33
2019-04-01T09:01:05.791Z,10.88
2019-04-01T09:03:34.506Z,8.08
2019-04-01T09:08:46.730Z,8.53
2019-04-01T09:11:15.665Z,7.28
2019-04-01T09:13:47.110Z,6.65
2019-04-01T09:16:19.284Z,6.50
2019-04-01T09:18:47.627Z,7.35
2019-04-01T09:21:16.230Z,5.97
2019-04-01T09:23:44.860Z,6.12
2019-04-01T09:26:13.585Z,6.25
2019-04-01T09:28:42.142Z,5.85
2019-04-01T09:31:10.779Z,5.25
2019-04-01T09:33:39.464Z,4.85
2019-04-01T09:36:08.024Z,5.00
2019-04-01T09:38:44.498Z,4.87
2019-04-01T09:41:19.369Z,3.98
2019-04-01T09:43:48.759Z,4.80
2019-04-01T09:46:20.698Z,4.08
2019-04-01T09:48:49.344Z,4.00
2019-04-01T09:51:19.551Z,6.05
2019-04-01T09:53:48.373Z,4.67
2019-04-01T09:56:17.123Z,4.78
2019-04-01T09:58:45.789Z,4.10
2019-04-01T10:01:14.414Z,3.85
2019-04-01T10:03:44.537Z,4.62
2019-04-01T10:06:13.223Z,4.33
2019-04-01T10:08:42.963Z,3.98
2019-04-01T10:11:12.851Z,4.25
2019-04-01T10:13:42.120Z,3.83
2019-04-01T10:16:10.772Z,4.35
2019-04-01T10:18:40.689Z,4.15
2019-04-01T10:21:09.682Z,4.80
2019-04-01T10:23:40.921Z,4.70
2019-04-01T10:26:14.115Z,3.75
2019-04-01T10:28:50.801Z,3.98
2019-04-01T10:31:20.032Z,4.10
2019-04-01T10:33:50.823Z,3.85
2019-04-01T10:36:21.490Z,4.20
2019-04-01T10:38:50.420Z,4.05
2019-04-01T10:41:19.373Z,3.72
2019-04-01T10:43:48.257Z,4.15
2019-04-01T10:46:17.178Z,3.75
2019-04-01T10:48:45.997Z,3.80
2019-04-01T10:51:15.013Z,3.70
2019-04-01T10:53:43.978Z,4.53
2019-04-01T10:56:15.224Z,5.50
2019-04-01T10:58:44.340Z,4.20
2019-04-01T11:01:13.327Z,3.72
2019-04-01T11:03:42.205Z,4.03
2019-04-01T11:06:11.155Z,4.40
2019-04-01T11:08:40.268Z,2.98
2019-04-01T11:11:09.104Z,3.40
2019-04-01T11:13:38.080Z,5.17
2019-04-01T11:16:06.942Z,3.55
2019-04-01T11:18:38.596Z,7.12
2019-04-01T11:21:07.447Z,3.50
2019-04-01T11:23:38.491Z,3.55
2019-04-01T11:26:14.746Z,3.58
2019-04-01T11:28:43.678Z,3.62
2019-04-01T11:31:12.640Z,5.08
2019-04-01T11:33:43.117Z,3.47
2019-04-01T11:36:12.121Z,3.65
2019-04-01T11:38:41.010Z,3.08
2019-04-01T11:41:10.048Z,3.25
2019-04-01T11:43:38.932Z,3.15
2019-04-01T11:46:14.910Z,3.17
2019-04-01T11:48:43.256Z,3.62
2019-04-01T11:51:13.415Z,3.85
2019-04-01T11:53:42.079Z,3.25
2019-04-01T11:56:10.950Z,4.00
2019-04-01T11:58:40.342Z,3.75
2019-04-01T12:01:09.019Z,6.87
2019-04-01T12:03:37.624Z,3.50
2019-04-01T12:06:06.253Z,3.95
2019-04-01T12:08:34.808Z,4.10
2019-04-01T12:11:03.492Z,4.95
2019-04-01T12:13:32.084Z,3.85
2019-04-01T12:16:00.713Z,4.20
2019-04-01T12:18:31.134Z,4.05
2019-04-01T12:20:59.772Z,5.40
2019-04-01T12:23:32.739Z,3.70
2019-04-01T12:26:14.933Z,4.00
2019-04-01T12:28:36.826Z,4.00
2019-04-01T12:31:05.559Z,4.12
2019-04-01T12:33:34.320Z,3.90
2019-04-01T12:36:02.938Z,4.58
2019-04-01T12:38:31.618Z,6.62
2019-04-01T12:41:00.293Z,4.17
2019-04-01T12:43:28.998Z,3.92
2019-04-01T12:45:57.641Z,4.58
2019-04-01T12:48:26.236Z,4.50
2019-04-01T12:50:54.858Z,4.22
2019-04-01T12:53:24.913Z,4.25
2019-04-01T12:55:53.465Z,4.28
2019-04-01T12:58:25.202Z,4.45
2019-04-01T13:00:52.517Z,4.47
2019-04-01T13:03:21.128Z,4.95
2019-04-01T13:06:26.011Z,4.65
2019-04-01T13:09:13.966Z,4.83
2019-04-01T13:12:18.621Z,4.80
2019-04-01T13:15:06.762Z,4.50
2019-04-01T13:18:11.481Z,4.28
2019-04-01T13:20:59.044Z,4.70
2019-04-01T13:24:04.918Z,4.37
2019-04-01T13:26:52.925Z,5.05
2019-04-01T13:29:58.019Z,5.45
2019-04-01T13:32:45.630Z,4.45
2019-04-01T13:35:50.049Z,4.03
2019-04-01T13:38:18.779Z,4.33
2019-04-01T13:40:47.468Z,3.92
2019-04-01T13:43:18.849Z,4.28
2019-04-01T13:45:47.519Z,4.42
2019-04-01T13:48:16.160Z,3.92
2019-04-01T13:50:44.731Z,4.35
2019-04-01T13:53:13.405Z,4.45
2019-04-01T13:55:42.004Z,4.30
2019-04-01T13:58:10.957Z,4.05
2019-04-01T14:00:39.671Z,3.72
2019-04-01T14:03:11.074Z,4.12
2019-04-01T14:05:38.555Z,3.85
2019-04-01T14:08:07.622Z,4.12
2019-04-01T14:10:36.258Z,4.85
2019-04-01T14:13:04.892Z,4.15
2019-04-01T14:15:33.562Z,4.30
2019-04-01T14:18:02.086Z,4.22
2019-04-01T14:20:30.702Z,3.90
2019-04-01T14:22:59.348Z,3.35
2019-04-01T14:25:28.013Z,3.90
2019-04-01T14:27:56.635Z,3.70
2019-04-01T14:30:25.297Z,3.98
2019-04-01T14:32:53.842Z,3.80
2019-04-01T14:35:23.781Z,4.10
2019-04-01T14:37:52.717Z,3.75
2019-04-01T14:40:21.381Z,4.22
2019-04-01T14:42:50.010Z,3.90
2019-04-01T14:45:18.685Z,4.35
2019-04-01T14:47:57.186Z,4.25
2019-04-01T14:50:17.684Z,4.50
2019-04-01T14:52:46.311Z,4.40
2019-04-01T14:55:14.933Z,4.08
2019-04-01T14:57:43.489Z,4.53
2019-04-01T15:00:13.638Z,4.22
2019-04-01T15:02:42.428Z,3.77
2019-04-01T15:05:11.273Z,4.70
2019-04-01T15:07:39.921Z,4.37
2019-04-01T15:10:08.768Z,5.05
2019-04-01T15:12:37.444Z,4.30
2019-04-01T15:15:08.866Z,3.95
2019-04-01T15:17:37.557Z,4.50
2019-04-01T15:20:07.688Z,4.10
2019-04-01T15:22:36.367Z,3.83
2019-04-01T15:25:07.058Z,4.25
2019-04-01T15:27:35.604Z,4.55
2019-04-01T15:30:05.786Z,4.65
2019-04-01T15:32:34.336Z,5.00
2019-04-01T15:35:03.076Z,4.58
2019-04-01T15:37:32.253Z,4.28
2019-04-01T15:40:00.943Z,4.25
2019-04-01T15:42:29.501Z,4.65
2019-04-01T15:44:58.031Z,4.58
2019-04-01T15:47:29.081Z,5.10
2019-04-01T15:49:57.725Z,5.40
2019-04-01T15:52:26.296Z,4.95
2019-04-01T15:54:57.740Z,4.70
2019-04-01T15:57:25.176Z,4.67
2019-04-01T15:59:53.775Z,4.67
2019-04-01T16:02:22.378Z,4.53
2019-04-01T16:04:51.009Z,4.73
2019-04-01T16:07:22.403Z,4.80
2019-04-01T16:09:50.028Z,4.60
2019-04-01T16:12:18.617Z,5.00
2019-04-01T16:14:47.287Z,4.70
2019-04-01T16:17:15.914Z,17.30
2019-04-01T16:19:44.582Z,6.20
2019-04-01T16:22:13.206Z,7.53
2019-04-01T16:24:41.849Z,5.50
2019-04-01T16:27:10.521Z,6.20
2019-04-01T16:29:39.152Z,5.20
2019-04-01T16:32:07.771Z,5.90
2019-04-01T16:34:36.370Z,6.47
2019-04-01T16:37:04.997Z,5.70
2019-04-01T16:39:33.627Z,5.10
2019-04-01T16:42:02.186Z,6.37
2019-04-01T16:44:30.813Z,5.67
2019-04-01T16:46:59.399Z,6.10
2019-04-01T16:49:28.040Z,6.07
2019-04-01T16:52:00.364Z,6.87
2019-04-01T16:54:29.386Z,7.40
2019-04-01T16:56:57.958Z,10.33
2019-04-01T16:59:28.122Z,14.13
2019-04-01T17:01:57.879Z,14.17
2019-04-01T17:04:26.632Z,15.77
2019-04-01T17:06:55.194Z,11.63
2019-04-01T17:09:23.831Z,9.77
2019-04-01T17:11:54.288Z,9.03
2019-04-01T17:14:24.201Z,10.03
2019-04-01T17:16:53.130Z,11.40
2019-04-01T17:19:21.776Z,12.23
2019-04-01T17:21:50.407Z,18.87
2019-04-01T17:24:19.017Z,17.70
2019-04-01T17:27:05.567Z,16.80
2019-04-01T17:29:34.209Z,10.30
2019-04-01T17:32:02.878Z,10.63
2019-04-01T17:34:34.535Z,15.40
2019-04-01T17:37:03.224Z,14.33
2019-04-01T17:39:31.852Z,12.67
2019-04-01T17:42:00.452Z,13.00
2019-04-01T17:44:29.093Z,10.67
2019-04-01T17:46:57.770Z,10.60
2019-04-01T17:49:30.242Z,10.97
2019-04-01T17:52:04.301Z,18.03
2019-04-01T17:54:32.765Z,15.83
2019-04-01T17:57:01.438Z,14.17
2019-04-01T17:59:30.066Z,12.90
2019-04-01T18:01:58.756Z,12.17
2019-04-01T18:04:27.320Z,11.27
2019-04-01T18:06:58.287Z,11.50
2019-04-01T18:09:26.284Z,10.93
2019-04-01T18:11:55.211Z,11.40
2019-04-01T18:14:24.190Z,12.50
2019-04-01T18:16:52.829Z,12.33
2019-04-01T18:19:21.461Z,19.77
2019-04-01T18:21:50.064Z,30.10
2019-04-01T18:24:18.740Z,24.13
2019-04-01T18:26:47.371Z,16.70
2019-04-01T18:29:15.942Z,12.87
2019-04-01T18:31:44.581Z,11.13
2019-04-01T18:34:13.218Z,11.80
2019-04-01T18:36:41.819Z,10.70
2019-04-01T18:39:11.063Z,10.07
2019-04-01T18:41:39.740Z,10.97
2019-04-01T18:44:08.364Z,11.57
2019-04-01T18:46:37.042Z,14.67
2019-04-01T18:49:05.676Z,15.23
2019-04-01T18:51:36.512Z,16.63
2019-04-01T18:54:05.248Z,16.80
2019-04-01T18:56:34.079Z,19.70
2019-04-01T18:59:02.683Z,26.10
2019-04-01T19:01:31.320Z,32.57
2019-04-01T19:03:59.811Z,30.63
2019-04-01T19:06:31.423Z,31.30
2019-04-01T19:09:09.233Z,31.13
2019-04-01T19:11:30.400Z,32.40
2019-04-01T19:14:02.150Z,35.47
2019-04-01T19:16:30.629Z,40.67
2019-04-01T19:18:59.293Z,36.70
2019-04-01T19:21:27.860Z,34.40
2019-04-01T19:23:56.413Z,33.43
2019-04-01T19:26:24.982Z,31.77
2019-04-01T19:28:53.547Z,33.57
2019-04-01T19:31:22.209Z,31.87
2019-04-01T19:33:50.895Z,31.37
2019-04-01T19:36:19.510Z,28.80
2019-04-01T19:38:48.083Z,26.43
2019-04-01T19:41:16.682Z,24.90
2019-04-01T19:43:45.653Z,21.80
2019-04-01T19:46:14.574Z,19.87
2019-04-01T19:48:43.200Z,17.77
2019-04-01T19:51:11.874Z,16.40
2019-04-01T19:53:40.511Z,16.67
2019-04-01T19:56:09.134Z,17.23
2019-04-01T19:58:37.806Z,17.37
2019-04-01T20:01:06.513Z,17.60
2019-04-01T20:03:35.151Z,17.47
2019-04-01T20:06:07.211Z,16.97
2019-04-01T20:08:34.178Z,16.90
2019-04-01T20:11:02.855Z,16.43
2019-04-01T20:13:31.425Z,16.77
2019-04-01T20:15:59.980Z,17.33
2019-04-01T20:18:28.560Z,15.27
2019-04-01T20:20:57.110Z,16.77
2019-04-01T20:23:25.784Z,16.40
2019-04-01T20:25:54.415Z,15.10
2019-04-01T20:28:23.105Z,15.03
2019-04-01T20:30:56.460Z,17.03
2019-04-01T20:33:27.226Z,16.20
2019-04-01T20:35:55.852Z,16.07
2019-04-01T20:38:24.527Z,15.83
2019-04-01T20:40:53.282Z,16.10
2019-04-01T20:43:21.844Z,19.17
2019-04-01T20:45:50.457Z,18.70
2019-04-01T20:48:19.086Z,21.67
2019-04-01T20:50:47.719Z,20.47
2019-04-01T20:53:16.402Z,20.43
2019-04-01T20:55:48.436Z,20.83
2019-04-01T20:58:17.946Z,23.30
2019-04-01T21:00:46.578Z,24.90
2019-04-01T21:03:15.067Z,24.83
2019-04-01T21:05:43.628Z,25.93
2019-04-01T21:08:12.238Z,24.77
2019-04-01T21:10:43.927Z,28.50
2019-04-01T21:13:12.612Z,26.00
2019-04-01T21:15:41.242Z,23.90
2019-04-01T21:18:09.810Z,27.87
2019-04-01T21:20:38.373Z,27.27
2019-04-01T21:23:08.687Z,28.73
2019-04-01T21:25:37.245Z,27.67
2019-04-01T21:28:05.890Z,28.77
2019-04-01T21:30:34.517Z,29.97
2019-04-01T21:33:03.080Z,30.13
2019-04-01T21:35:31.638Z,29.50
2019-04-01T21:38:00.275Z,28.93
2019-04-01T21:40:28.763Z,30.40
2019-04-01T21:42:57.596Z,32.43
2019-04-01T21:45:26.269Z,30.87
2019-04-01T21:47:54.790Z,26.93
2019-04-01T21:50:23.412Z,21.43
2019-04-01T21:52:52.085Z,18.03
2019-04-01T21:55:20.729Z,16.67
2019-04-01T21:57:51.137Z,16.20
2019-04-01T22:00:27.654Z,17.97
2019-04-01T22:02:56.245Z,16.60
2019-04-01T22:05:24.910Z,18.50
2019-04-01T22:07:53.452Z,24.33
2019-04-01T22:10:22.111Z,24.57
2019-04-01T22:12:52.569Z,26.30
2019-04-01T22:15:23.677Z,25.70
2019-04-01T22:17:52.235Z,26.73
2019-04-01T22:20:20.866Z,27.27
2019-04-01T22:22:49.515Z,26.70
2019-04-01T22:25:18.142Z,27.47
2019-04-01T22:27:46.745Z,25.80
2019-04-01T22:30:17.307Z,26.53
2019-04-01T22:32:46.367Z,24.37
2019-04-01T22:35:15.031Z,25.63
2019-04-01T22:37:43.636Z,25.93
2019-04-01T22:40:12.672Z,25.30
2019-04-01T22:42:41.315Z,25.10
2019-04-01T22:45:10.019Z,25.10
2019-04-01T22:47:38.646Z,25.90
2019-04-01T22:50:07.829Z,25.63
2019-04-01T22:52:36.314Z,24.00
2019-04-01T22:55:05.643Z,25.00
2019-04-01T22:57:34.248Z,24.70
2019-04-01T23:00:02.960Z,24.17
2019-04-01T23:02:31.444Z,24.07
2019-04-01T23:04:59.977Z,24.40
2019-04-01T23:07:28.610Z,24.80
2019-04-01T23:09:58.099Z,24.37
2019-04-01T23:12:26.968Z,23.57
2019-04-01T23:14:55.610Z,24.73
2019-04-01T23:17:24.239Z,25.03
2019-04-01T23:19:52.796Z,25.47
2019-04-01T23:22:21.438Z,26.07
2019-04-01T23:24:50.009Z,27.20
2019-04-01T23:27:18.631Z,27.77
2019-04-01T23:29:47.158Z,28.60
2019-04-01T23:32:16.320Z,27.80
2019-04-01T23:34:45.419Z,28.33
2019-04-01T23:37:14.048Z,28.07
2019-04-01T23:39:42.676Z,28.83
2019-04-01T23:42:11.283Z,29.53
2019-04-01T23:44:39.835Z,30.23
2019-04-01T23:47:08.441Z,27.97
2019-04-01T23:49:37.143Z,29.70
2019-04-01T23:52:05.928Z,30.43
2019-04-01T23:54:34.508Z,31.03
2019-04-01T23:57:03.137Z,30.07
2019-04-01T23:59:31.738Z,30.43
